sensor_id;sensor_type;location;lat;lon;timestamp;P1;durP1;ratioP1;P2;durP2;ratioP2
44214;SDS011;29884;47.450;19.124;2023-08-24T00:01:08;5.32;;;3.00;;
44214;SDS011;29884;47.450;19.124;2023-08-24T00:03:37;4.25;;;2.78;;
44214;SDS011;29884;47.450;19.124;2023-08-24T00:06:03;6.50;;;3.15;;
44214;SDS011;29884;47.450;19.124;2023-08-24T00:08:29;6.25;;;3.47;;
44214;SDS011;29884;47.450;19.124;2023-08-24T00:10:55;11.65;;;3.95;;
44214;SDS011;29884;47.450;19.124;2023-08-24T00:13:21;5.15;;;3.13;;
44214;SDS011;29884;47.450;19.124;2023-08-24T00:15:46;6.22;;;3.35;;
44214;SDS011;29884;47.450;19.124;2023-08-24T00:18:12;6.93;;;3.47;;
44214;SDS011;29884;47.450;19.124;2023-08-24T00:20:38;6.68;;;3.55;;
44214;SDS011;29884;47.450;19.124;2023-08-24T00:23:04;7.15;;;3.65;;
44214;SDS011;29884;47.450;19.124;2023-08-24T00:25:30;8.35;;;3.92;;
44214;SDS011;29884;47.450;19.124;2023-08-24T00:27:56;6.13;;;3.00;;
44214;SDS011;29884;47.450;19.124;2023-08-24T00:30:23;4.88;;;2.95;;
44214;SDS011;29884;47.450;19.124;2023-08-24T00:32:48;6.07;;;3.17;;
44214;SDS011;29884;47.450;19.124;2023-08-24T00:35:15;7.07;;;3.50;;
44214;SDS011;29884;47.450;19.124;2023-08-24T00:37:41;7.60;;;3.45;;
44214;SDS011;29884;47.450;19.124;2023-08-24T00:40:07;7.28;;;3.83;;
44214;SDS011;29884;47.450;19.124;2023-08-24T00:42:40;6.60;;;4.03;;
44214;SDS011;29884;47.450;19.124;2023-08-24T00:45:07;7.20;;;3.50;;
44214;SDS011;29884;47.450;19.124;2023-08-24T00:47:34;6.03;;;3.53;;
44214;SDS011;29884;47.450;19.124;2023-08-24T00:50:01;5.63;;;3.70;;
44214;SDS011;29884;47.450;19.124;2023-08-24T00:52:28;8.13;;;3.92;;
44214;SDS011;29884;47.450;19.124;2023-08-24T00:54:56;7.65;;;3.72;;
44214;SDS011;29884;47.450;19.124;2023-08-24T00:57:23;7.88;;;4.18;;
44214;SDS011;29884;47.450;19.124;2023-08-24T00:59:49;7.30;;;3.53;;
44214;SDS011;29884;47.450;19.124;2023-08-24T01:02:15;14.88;;;5.80;;
44214;SDS011;29884;47.450;19.124;2023-08-24T01:04:41;9.55;;;3.50;;
44214;SDS011;29884;47.450;19.124;2023-08-24T01:07:10;8.52;;;4.15;;
44214;SDS011;29884;47.450;19.124;2023-08-24T01:09:36;7.35;;;3.47;;
44214;SDS011;29884;47.450;19.124;2023-08-24T01:12:49;7.60;;;4.05;;
44214;SDS011;29884;47.450;19.124;2023-08-24T01:15:04;9.13;;;4.35;;
44214;SDS011;29884;47.450;19.124;2023-08-24T01:17:37;11.10;;;4.63;;
44214;SDS011;29884;47.450;19.124;2023-08-24T01:20:06;7.70;;;3.70;;
44214;SDS011;29884;47.450;19.124;2023-08-24T01:22:40;5.93;;;3.45;;
44214;SDS011;29884;47.450;19.124;2023-08-24T01:25:16;5.18;;;3.45;;
44214;SDS011;29884;47.450;19.124;2023-08-24T01:27:49;7.30;;;3.77;;
44214;SDS011;29884;47.450;19.124;2023-08-24T01:30:17;6.90;;;4.03;;
44214;SDS011;29884;47.450;19.124;2023-08-24T01:32:44;6.05;;;3.85;;
44214;SDS011;29884;47.450;19.124;2023-08-24T01:35:10;8.63;;;4.18;;
44214;SDS011;29884;47.450;19.124;2023-08-24T01:37:36;7.22;;;3.65;;
44214;SDS011;29884;47.450;19.124;2023-08-24T01:40:06;7.78;;;3.75;;
44214;SDS011;29884;47.450;19.124;2023-08-24T01:43:20;6.72;;;3.72;;
44214;SDS011;29884;47.450;19.124;2023-08-24T01:45:29;7.10;;;3.90;;
44214;SDS011;29884;47.450;19.124;2023-08-24T01:47:56;7.13;;;3.40;;
44214;SDS011;29884;47.450;19.124;2023-08-24T01:50:23;5.72;;;3.72;;
44214;SDS011;29884;47.450;19.124;2023-08-24T01:52:49;7.70;;;4.18;;
44214;SDS011;29884;47.450;19.124;2023-08-24T01:55:19;6.38;;;3.80;;
44214;SDS011;29884;47.450;19.124;2023-08-24T01:57:45;8.70;;;4.20;;
44214;SDS011;29884;47.450;19.124;2023-08-24T02:00:11;7.53;;;4.07;;
44214;SDS011;29884;47.450;19.124;2023-08-24T02:02:37;6.45;;;3.30;;
44214;SDS011;29884;47.450;19.124;2023-08-24T02:05:03;6.25;;;3.45;;
44214;SDS011;29884;47.450;19.124;2023-08-24T02:07:29;6.95;;;3.38;;
44214;SDS011;29884;47.450;19.124;2023-08-24T02:09:55;7.68;;;3.83;;
44214;SDS011;29884;47.450;19.124;2023-08-24T02:12:21;5.97;;;3.40;;
44214;SDS011;29884;47.450;19.124;2023-08-24T02:14:46;6.60;;;3.92;;
44214;SDS011;29884;47.450;19.124;2023-08-24T02:17:13;6.60;;;3.70;;
44214;SDS011;29884;47.450;19.124;2023-08-24T02:19:39;6.22;;;3.28;;
44214;SDS011;29884;47.450;19.124;2023-08-24T02:22:06;7.88;;;3.58;;
44214;SDS011;29884;47.450;19.124;2023-08-24T02:24:33;6.90;;;3.53;;
44214;SDS011;29884;47.450;19.124;2023-08-24T02:26:59;7.15;;;3.88;;
44214;SDS011;29884;47.450;19.124;2023-08-24T02:29:25;7.60;;;3.83;;
44214;SDS011;29884;47.450;19.124;2023-08-24T02:31:51;7.03;;;3.47;;
44214;SDS011;29884;47.450;19.124;2023-08-24T02:34:17;5.93;;;3.38;;
44214;SDS011;29884;47.450;19.124;2023-08-24T02:36:43;10.77;;;4.10;;
44214;SDS011;29884;47.450;19.124;2023-08-24T02:39:09;6.25;;;3.45;;
44214;SDS011;29884;47.450;19.124;2023-08-24T02:41:35;5.85;;;3.30;;
44214;SDS011;29884;47.450;19.124;2023-08-24T02:44:01;6.07;;;3.15;;
44214;SDS011;29884;47.450;19.124;2023-08-24T02:46:28;6.70;;;3.88;;
44214;SDS011;29884;47.450;19.124;2023-08-24T02:48:54;7.68;;;3.83;;
44214;SDS011;29884;47.450;19.124;2023-08-24T02:51:23;8.95;;;4.15;;
44214;SDS011;29884;47.450;19.124;2023-08-24T02:53:49;6.18;;;3.88;;
44214;SDS011;29884;47.450;19.124;2023-08-24T02:56:15;6.40;;;3.72;;
44214;SDS011;29884;47.450;19.124;2023-08-24T02:58:41;7.13;;;3.75;;
44214;SDS011;29884;47.450;19.124;2023-08-24T03:01:07;8.27;;;3.53;;
44214;SDS011;29884;47.450;19.124;2023-08-24T03:03:36;7.63;;;3.40;;
44214;SDS011;29884;47.450;19.124;2023-08-24T03:06:03;7.72;;;3.80;;
44214;SDS011;29884;47.450;19.124;2023-08-24T03:08:30;7.80;;;4.00;;
44214;SDS011;29884;47.450;19.124;2023-08-24T03:10:57;9.30;;;4.07;;
44214;SDS011;29884;47.450;19.124;2023-08-24T03:13:23;11.57;;;4.68;;
44214;SDS011;29884;47.450;19.124;2023-08-24T03:15:49;9.82;;;4.40;;
44214;SDS011;29884;47.450;19.124;2023-08-24T03:18:16;12.35;;;5.00;;
44214;SDS011;29884;47.450;19.124;2023-08-24T03:20:42;9.23;;;4.50;;
44214;SDS011;29884;47.450;19.124;2023-08-24T03:23:08;10.25;;;4.82;;
44214;SDS011;29884;47.450;19.124;2023-08-24T03:25:38;7.00;;;4.03;;
44214;SDS011;29884;47.450;19.124;2023-08-24T03:28:05;10.75;;;4.57;;
44214;SDS011;29884;47.450;19.124;2023-08-24T03:30:33;7.03;;;4.07;;
44214;SDS011;29884;47.450;19.124;2023-08-24T03:33:00;8.38;;;4.25;;
44214;SDS011;29884;47.450;19.124;2023-08-24T03:35:28;9.50;;;4.63;;
44214;SDS011;29884;47.450;19.124;2023-08-24T03:37:55;9.45;;;4.45;;
44214;SDS011;29884;47.450;19.124;2023-08-24T03:40:21;7.60;;;3.95;;
44214;SDS011;29884;47.450;19.124;2023-08-24T03:42:46;8.07;;;4.22;;
44214;SDS011;29884;47.450;19.124;2023-08-24T03:45:12;6.85;;;4.00;;
44214;SDS011;29884;47.450;19.124;2023-08-24T03:47:38;9.75;;;4.07;;
44214;SDS011;29884;47.450;19.124;2023-08-24T03:50:04;10.18;;;4.28;;
44214;SDS011;29884;47.450;19.124;2023-08-24T03:52:30;9.60;;;4.78;;
44214;SDS011;29884;47.450;19.124;2023-08-24T03:54:56;8.77;;;4.55;;
44214;SDS011;29884;47.450;19.124;2023-08-24T03:57:22;9.57;;;4.30;;
44214;SDS011;29884;47.450;19.124;2023-08-24T03:59:48;8.88;;;4.95;;
44214;SDS011;29884;47.450;19.124;2023-08-24T04:02:14;9.30;;;4.70;;
44214;SDS011;29884;47.450;19.124;2023-08-24T04:04:40;7.00;;;4.28;;
44214;SDS011;29884;47.450;19.124;2023-08-24T04:07:05;8.38;;;4.68;;
44214;SDS011;29884;47.450;19.124;2023-08-24T04:09:31;7.72;;;4.63;;
44214;SDS011;29884;47.450;19.124;2023-08-24T04:11:57;9.27;;;4.32;;
44214;SDS011;29884;47.450;19.124;2023-08-24T04:14:23;10.07;;;4.93;;
44214;SDS011;29884;47.450;19.124;2023-08-24T04:16:48;10.55;;;4.75;;
44214;SDS011;29884;47.450;19.124;2023-08-24T04:19:14;6.22;;;4.25;;
44214;SDS011;29884;47.450;19.124;2023-08-24T04:21:40;9.15;;;4.43;;
44214;SDS011;29884;47.450;19.124;2023-08-24T04:24:06;7.20;;;4.43;;
44214;SDS011;29884;47.450;19.124;2023-08-24T04:26:32;5.47;;;4.18;;
44214;SDS011;29884;47.450;19.124;2023-08-24T04:28:57;7.53;;;4.45;;
44214;SDS011;29884;47.450;19.124;2023-08-24T04:31:23;8.50;;;4.78;;
44214;SDS011;29884;47.450;19.124;2023-08-24T04:33:49;9.63;;;5.30;;
44214;SDS011;29884;47.450;19.124;2023-08-24T04:36:15;10.10;;;5.07;;
44214;SDS011;29884;47.450;19.124;2023-08-24T04:38:40;10.38;;;5.40;;
44214;SDS011;29884;47.450;19.124;2023-08-24T04:41:07;8.18;;;4.95;;
44214;SDS011;29884;47.450;19.124;2023-08-24T04:43:34;10.65;;;4.82;;
44214;SDS011;29884;47.450;19.124;2023-08-24T04:46:01;12.43;;;5.75;;
44214;SDS011;29884;47.450;19.124;2023-08-24T04:48:27;8.25;;;5.00;;
44214;SDS011;29884;47.450;19.124;2023-08-24T04:50:57;9.07;;;4.88;;
44214;SDS011;29884;47.450;19.124;2023-08-24T04:53:23;10.98;;;5.07;;
44214;SDS011;29884;47.450;19.124;2023-08-24T04:55:49;8.48;;;4.93;;
44214;SDS011;29884;47.450;19.124;2023-08-24T04:58:15;10.38;;;5.53;;
44214;SDS011;29884;47.450;19.124;2023-08-24T05:00:43;10.43;;;5.35;;
44214;SDS011;29884;47.450;19.124;2023-08-24T05:03:09;9.57;;;4.93;;
44214;SDS011;29884;47.450;19.124;2023-08-24T05:05:35;8.85;;;5.20;;
44214;SDS011;29884;47.450;19.124;2023-08-24T05:08:03;8.98;;;4.78;;
44214;SDS011;29884;47.450;19.124;2023-08-24T05:10:35;12.88;;;5.55;;
44214;SDS011;29884;47.450;19.124;2023-08-24T05:13:02;10.18;;;5.22;;
44214;SDS011;29884;47.450;19.124;2023-08-24T05:15:28;7.55;;;4.68;;
44214;SDS011;29884;47.450;19.124;2023-08-24T05:17:54;9.35;;;5.47;;
44214;SDS011;29884;47.450;19.124;2023-08-24T05:20:22;11.82;;;4.97;;
44214;SDS011;29884;47.450;19.124;2023-08-24T05:22:48;11.68;;;5.30;;
44214;SDS011;29884;47.450;19.124;2023-08-24T05:25:14;9.38;;;5.03;;
44214;SDS011;29884;47.450;19.124;2023-08-24T05:27:41;8.98;;;4.97;;
44214;SDS011;29884;47.450;19.124;2023-08-24T05:30:08;9.77;;;4.65;;
44214;SDS011;29884;47.450;19.124;2023-08-24T05:32:34;11.30;;;6.55;;
44214;SDS011;29884;47.450;19.124;2023-08-24T05:35:06;10.27;;;5.45;;
44214;SDS011;29884;47.450;19.124;2023-08-24T05:37:33;9.00;;;5.00;;
44214;SDS011;29884;47.450;19.124;2023-08-24T05:40:00;10.35;;;5.47;;
44214;SDS011;29884;47.450;19.124;2023-08-24T05:42:26;10.07;;;5.20;;
44214;SDS011;29884;47.450;19.124;2023-08-24T05:44:52;9.38;;;4.20;;
44214;SDS011;29884;47.450;19.124;2023-08-24T05:47:18;7.90;;;4.65;;
44214;SDS011;29884;47.450;19.124;2023-08-24T05:49:44;9.05;;;4.97;;
44214;SDS011;29884;47.450;19.124;2023-08-24T05:52:10;9.07;;;4.97;;
44214;SDS011;29884;47.450;19.124;2023-08-24T05:54:36;11.13;;;5.90;;
44214;SDS011;29884;47.450;19.124;2023-08-24T05:57:03;7.43;;;4.22;;
44214;SDS011;29884;47.450;19.124;2023-08-24T05:59:29;7.90;;;4.72;;
44214;SDS011;29884;47.450;19.124;2023-08-24T06:01:55;8.98;;;4.25;;
44214;SDS011;29884;47.450;19.124;2023-08-24T06:04:21;8.82;;;4.68;;
44214;SDS011;29884;47.450;19.124;2023-08-24T06:06:47;7.95;;;4.28;;
44214;SDS011;29884;47.450;19.124;2023-08-24T06:09:13;9.50;;;5.50;;
44214;SDS011;29884;47.450;19.124;2023-08-24T06:11:40;8.93;;;4.57;;
44214;SDS011;29884;47.450;19.124;2023-08-24T06:14:05;6.93;;;4.25;;
44214;SDS011;29884;47.450;19.124;2023-08-24T06:16:31;7.22;;;4.55;;
44214;SDS011;29884;47.450;19.124;2023-08-24T06:18:57;9.75;;;5.05;;
44214;SDS011;29884;47.450;19.124;2023-08-24T06:21:23;12.55;;;4.97;;
44214;SDS011;29884;47.450;19.124;2023-08-24T06:23:49;13.45;;;6.10;;
44214;SDS011;29884;47.450;19.124;2023-08-24T06:26:15;8.98;;;5.10;;
44214;SDS011;29884;47.450;19.124;2023-08-24T06:28:41;11.10;;;5.93;;
44214;SDS011;29884;47.450;19.124;2023-08-24T06:31:07;13.70;;;6.53;;
44214;SDS011;29884;47.450;19.124;2023-08-24T06:33:33;10.48;;;5.75;;
44214;SDS011;29884;47.450;19.124;2023-08-24T06:36:00;11.82;;;5.53;;
44214;SDS011;29884;47.450;19.124;2023-08-24T06:38:27;7.68;;;4.68;;
44214;SDS011;29884;47.450;19.124;2023-08-24T06:40:54;9.75;;;4.47;;
44214;SDS011;29884;47.450;19.124;2023-08-24T06:43:19;9.85;;;4.28;;
44214;SDS011;29884;47.450;19.124;2023-08-24T06:45:45;9.52;;;4.47;;
44214;SDS011;29884;47.450;19.124;2023-08-24T06:48:11;10.55;;;4.68;;
44214;SDS011;29884;47.450;19.124;2023-08-24T06:50:36;9.63;;;4.40;;
44214;SDS011;29884;47.450;19.124;2023-08-24T06:53:05;15.25;;;5.00;;
44214;SDS011;29884;47.450;19.124;2023-08-24T06:55:31;9.77;;;3.97;;
44214;SDS011;29884;47.450;19.124;2023-08-24T06:57:57;12.93;;;4.55;;
44214;SDS011;29884;47.450;19.124;2023-08-24T07:00:22;8.95;;;4.18;;
44214;SDS011;29884;47.450;19.124;2023-08-24T07:02:50;8.52;;;3.80;;
44214;SDS011;29884;47.450;19.124;2023-08-24T07:05:16;9.18;;;4.18;;
44214;SDS011;29884;47.450;19.124;2023-08-24T07:07:47;10.85;;;3.90;;
44214;SDS011;29884;47.450;19.124;2023-08-24T07:10:14;10.35;;;4.55;;
44214;SDS011;29884;47.450;19.124;2023-08-24T07:12:40;9.13;;;3.92;;
44214;SDS011;29884;47.450;19.124;2023-08-24T07:15:06;7.25;;;3.92;;
44214;SDS011;29884;47.450;19.124;2023-08-24T07:17:33;8.10;;;3.90;;
44214;SDS011;29884;47.450;19.124;2023-08-24T07:19:59;8.55;;;3.75;;
44214;SDS011;29884;47.450;19.124;2023-08-24T07:22:24;12.50;;;5.32;;
44214;SDS011;29884;47.450;19.124;2023-08-24T07:24:53;9.40;;;3.33;;
44214;SDS011;29884;47.450;19.124;2023-08-24T07:27:19;10.95;;;4.20;;
44214;SDS011;29884;47.450;19.124;2023-08-24T07:29:46;9.60;;;3.95;;
44214;SDS011;29884;47.450;19.124;2023-08-24T07:32:12;7.03;;;3.33;;
44214;SDS011;29884;47.450;19.124;2023-08-24T07:34:37;10.43;;;4.28;;
44214;SDS011;29884;47.450;19.124;2023-08-24T07:37:03;8.45;;;3.60;;
44214;SDS011;29884;47.450;19.124;2023-08-24T07:39:29;9.27;;;3.90;;
44214;SDS011;29884;47.450;19.124;2023-08-24T07:41:55;6.95;;;3.45;;
44214;SDS011;29884;47.450;19.124;2023-08-24T07:44:21;8.45;;;3.20;;
44214;SDS011;29884;47.450;19.124;2023-08-24T07:46:47;9.15;;;3.65;;
44214;SDS011;29884;47.450;19.124;2023-08-24T07:49:13;7.18;;;3.30;;
44214;SDS011;29884;47.450;19.124;2023-08-24T07:51:39;4.93;;;3.00;;
44214;SDS011;29884;47.450;19.124;2023-08-24T07:54:04;7.05;;;3.22;;
44214;SDS011;29884;47.450;19.124;2023-08-24T07:56:32;6.15;;;2.75;;
44214;SDS011;29884;47.450;19.124;2023-08-24T07:58:58;5.50;;;2.80;;
44214;SDS011;29884;47.450;19.124;2023-08-24T08:01:24;8.18;;;3.30;;
44214;SDS011;29884;47.450;19.124;2023-08-24T08:03:49;7.47;;;3.50;;
44214;SDS011;29884;47.450;19.124;2023-08-24T08:06:15;5.53;;;2.30;;
44214;SDS011;29884;47.450;19.124;2023-08-24T08:08:41;4.95;;;2.50;;
44214;SDS011;29884;47.450;19.124;2023-08-24T08:11:07;4.68;;;2.20;;
44214;SDS011;29884;47.450;19.124;2023-08-24T08:13:32;3.90;;;2.38;;
44214;SDS011;29884;47.450;19.124;2023-08-24T08:16:02;3.92;;;2.47;;
44214;SDS011;29884;47.450;19.124;2023-08-24T08:18:28;3.67;;;2.40;;
44214;SDS011;29884;47.450;19.124;2023-08-24T08:20:54;2.65;;;2.30;;
44214;SDS011;29884;47.450;19.124;2023-08-24T08:23:20;3.15;;;1.85;;
44214;SDS011;29884;47.450;19.124;2023-08-24T08:25:46;2.85;;;2.10;;
44214;SDS011;29884;47.450;19.124;2023-08-24T08:28:11;4.47;;;2.15;;
44214;SDS011;29884;47.450;19.124;2023-08-24T08:30:37;3.00;;;2.10;;
44214;SDS011;29884;47.450;19.124;2023-08-24T08:33:03;5.05;;;2.58;;
44214;SDS011;29884;47.450;19.124;2023-08-24T08:35:29;4.35;;;2.10;;
44214;SDS011;29884;47.450;19.124;2023-08-24T08:37:55;2.72;;;1.92;;
44214;SDS011;29884;47.450;19.124;2023-08-24T08:40:21;2.67;;;2.13;;
44214;SDS011;29884;47.450;19.124;2023-08-24T08:45:20;2.55;;;2.08;;
44214;SDS011;29884;47.450;19.124;2023-08-24T08:48:00;3.53;;;2.65;;
44214;SDS011;29884;47.450;19.124;2023-08-24T08:50:27;6.18;;;2.30;;
44214;SDS011;29884;47.450;19.124;2023-08-24T08:52:53;3.72;;;1.85;;
44214;SDS011;29884;47.450;19.124;2023-08-24T08:55:19;6.65;;;2.15;;
44214;SDS011;29884;47.450;19.124;2023-08-24T08:57:48;3.20;;;2.40;;
44214;SDS011;29884;47.450;19.124;2023-08-24T09:00:17;4.18;;;2.60;;
44214;SDS011;29884;47.450;19.124;2023-08-24T09:02:44;3.92;;;2.47;;
44214;SDS011;29884;47.450;19.124;2023-08-24T09:05:13;5.78;;;2.17;;
44214;SDS011;29884;47.450;19.124;2023-08-24T09:07:39;3.95;;;2.20;;
44214;SDS011;29884;47.450;19.124;2023-08-24T09:10:06;5.28;;;2.83;;
44214;SDS011;29884;47.450;19.124;2023-08-24T09:12:33;2.83;;;2.13;;
44214;SDS011;29884;47.450;19.124;2023-08-24T09:14:59;2.80;;;2.45;;
44214;SDS011;29884;47.450;19.124;2023-08-24T09:17:25;2.55;;;2.28;;
44214;SDS011;29884;47.450;19.124;2023-08-24T09:19:53;2.65;;;2.17;;
44214;SDS011;29884;47.450;19.124;2023-08-24T09:22:23;4.70;;;2.47;;
44214;SDS011;29884;47.450;19.124;2023-08-24T09:24:48;2.80;;;2.10;;
44214;SDS011;29884;47.450;19.124;2023-08-24T09:27:18;3.03;;;1.63;;
44214;SDS011;29884;47.450;19.124;2023-08-24T09:29:48;3.03;;;2.25;;
44214;SDS011;29884;47.450;19.124;2023-08-24T09:32:15;2.65;;;1.80;;
44214;SDS011;29884;47.450;19.124;2023-08-24T09:34:47;2.65;;;1.70;;
44214;SDS011;29884;47.450;19.124;2023-08-24T09:37:16;3.90;;;2.05;;
44214;SDS011;29884;47.450;19.124;2023-08-24T09:39:42;2.55;;;1.92;;
44214;SDS011;29884;47.450;19.124;2023-08-24T09:42:08;1.75;;;1.45;;
44214;SDS011;29884;47.450;19.124;2023-08-24T09:44:34;2.08;;;1.55;;
44214;SDS011;29884;47.450;19.124;2023-08-24T09:46:59;3.40;;;1.55;;
44214;SDS011;29884;47.450;19.124;2023-08-24T09:49:25;4.75;;;1.90;;
44214;SDS011;29884;47.450;19.124;2023-08-24T09:51:56;4.05;;;1.80;;
44214;SDS011;29884;47.450;19.124;2023-08-24T09:54:25;2.28;;;1.95;;
44214;SDS011;29884;47.450;19.124;2023-08-24T09:56:52;2.38;;;1.60;;
44214;SDS011;29884;47.450;19.124;2023-08-24T09:59:20;4.03;;;1.88;;
44214;SDS011;29884;47.450;19.124;2023-08-24T10:01:49;2.17;;;1.98;;
44214;SDS011;29884;47.450;19.124;2023-08-24T10:04:25;2.95;;;2.03;;
44214;SDS011;29884;47.450;19.124;2023-08-24T10:07:05;2.75;;;2.13;;
44214;SDS011;29884;47.450;19.124;2023-08-24T10:10:19;3.22;;;1.90;;
44214;SDS011;29884;47.450;19.124;2023-08-24T10:12:26;4.00;;;2.17;;
44214;SDS011;29884;47.450;19.124;2023-08-24T10:17:31;3.22;;;2.10;;
44214;SDS011;29884;47.450;19.124;2023-08-24T10:19:59;3.47;;;1.85;;
44214;SDS011;29884;47.450;19.124;2023-08-24T10:22:29;2.95;;;1.50;;
44214;SDS011;29884;47.450;19.124;2023-08-24T10:24:56;2.90;;;1.35;;
44214;SDS011;29884;47.450;19.124;2023-08-24T10:27:22;2.78;;;1.40;;
44214;SDS011;29884;47.450;19.124;2023-08-24T10:29:49;1.75;;;1.20;;
44214;SDS011;29884;47.450;19.124;2023-08-24T10:32:15;3.25;;;1.48;;
44214;SDS011;29884;47.450;19.124;2023-08-24T10:34:41;2.38;;;1.27;;
44214;SDS011;29884;47.450;19.124;2023-08-24T10:37:10;2.63;;;1.27;;
44214;SDS011;29884;47.450;19.124;2023-08-24T10:39:46;6.07;;;1.38;;
44214;SDS011;29884;47.450;19.124;2023-08-24T10:42:15;2.05;;;1.38;;
44214;SDS011;29884;47.450;19.124;2023-08-24T10:44:44;2.15;;;1.20;;
44214;SDS011;29884;47.450;19.124;2023-08-24T10:47:21;1.70;;;1.20;;
44214;SDS011;29884;47.450;19.124;2023-08-24T10:52:23;3.85;;;1.27;;
44214;SDS011;29884;47.450;19.124;2023-08-24T10:54:55;3.00;;;1.40;;
44214;SDS011;29884;47.450;19.124;2023-08-24T10:57:27;2.60;;;1.38;;
44214;SDS011;29884;47.450;19.124;2023-08-24T11:00:07;2.58;;;1.40;;
44214;SDS011;29884;47.450;19.124;2023-08-24T11:02:43;2.33;;;1.50;;
44214;SDS011;29884;47.450;19.124;2023-08-24T11:05:25;2.28;;;1.40;;
44214;SDS011;29884;47.450;19.124;2023-08-24T11:07:58;2.80;;;1.48;;
44214;SDS011;29884;47.450;19.124;2023-08-24T11:10:25;2.58;;;1.33;;
44214;SDS011;29884;47.450;19.124;2023-08-24T11:15:47;2.50;;;1.60;;
44214;SDS011;29884;47.450;19.124;2023-08-24T11:18:26;2.70;;;1.52;;
44214;SDS011;29884;47.450;19.124;2023-08-24T11:23:24;1.75;;;1.10;;
44214;SDS011;29884;47.450;19.124;2023-08-24T11:25:52;1.20;;;1.00;;
44214;SDS011;29884;47.450;19.124;2023-08-24T11:28:21;2.20;;;1.23;;
44214;SDS011;29884;47.450;19.124;2023-08-24T11:30:49;3.20;;;1.20;;
44214;SDS011;29884;47.450;19.124;2023-08-24T11:33:31;2.17;;;1.10;;
44214;SDS011;29884;47.450;19.124;2023-08-24T11:35:58;1.80;;;1.10;;
44214;SDS011;29884;47.450;19.124;2023-08-24T11:38:24;1.77;;;1.10;;
44214;SDS011;29884;47.450;19.124;2023-08-24T11:40:59;3.28;;;1.27;;
44214;SDS011;29884;47.450;19.124;2023-08-24T11:43:25;3.08;;;1.15;;
44214;SDS011;29884;47.450;19.124;2023-08-24T11:45:54;1.52;;;1.13;;
44214;SDS011;29884;47.450;19.124;2023-08-24T11:48:24;2.00;;;1.10;;
44214;SDS011;29884;47.450;19.124;2023-08-24T11:50:51;6.57;;;1.20;;
44214;SDS011;29884;47.450;19.124;2023-08-24T11:53:18;1.98;;;0.90;;
44214;SDS011;29884;47.450;19.124;2023-08-24T11:55:44;3.28;;;0.93;;
44214;SDS011;29884;47.450;19.124;2023-08-24T11:58:16;1.50;;;1.08;;
44214;SDS011;29884;47.450;19.124;2023-08-24T12:00:42;1.90;;;0.95;;
44214;SDS011;29884;47.450;19.124;2023-08-24T12:03:09;1.40;;;1.10;;
44214;SDS011;29884;47.450;19.124;2023-08-24T12:05:35;2.85;;;1.10;;
44214;SDS011;29884;47.450;19.124;2023-08-24T12:08:01;3.40;;;1.45;;
44214;SDS011;29884;47.450;19.124;2023-08-24T12:10:27;1.70;;;1.17;;
44214;SDS011;29884;47.450;19.124;2023-08-24T12:13:05;2.42;;;1.33;;
44214;SDS011;29884;47.450;19.124;2023-08-24T12:15:35;1.90;;;1.15;;
44214;SDS011;29884;47.450;19.124;2023-08-24T12:18:08;2.28;;;1.20;;
44214;SDS011;29884;47.450;19.124;2023-08-24T12:20:35;2.15;;;1.50;;
44214;SDS011;29884;47.450;19.124;2023-08-24T12:23:01;1.60;;;1.20;;
44214;SDS011;29884;47.450;19.124;2023-08-24T12:25:27;3.65;;;1.67;;
44214;SDS011;29884;47.450;19.124;2023-08-24T12:28:07;2.10;;;1.20;;
44214;SDS011;29884;47.450;19.124;2023-08-24T12:30:47;3.00;;;1.40;;
44214;SDS011;29884;47.450;19.124;2023-08-24T12:33:30;2.25;;;1.38;;
44214;SDS011;29884;47.450;19.124;2023-08-24T12:35:56;1.88;;;1.13;;
44214;SDS011;29884;47.450;19.124;2023-08-24T12:38:24;6.03;;;1.48;;
44214;SDS011;29884;47.450;19.124;2023-08-24T12:40:51;7.07;;;2.05;;
44214;SDS011;29884;47.450;19.124;2023-08-24T12:43:17;4.97;;;1.73;;
44214;SDS011;29884;47.450;19.124;2023-08-24T12:45:43;4.28;;;1.98;;
44214;SDS011;29884;47.450;19.124;2023-08-24T12:48:09;4.50;;;1.60;;
44214;SDS011;29884;47.450;19.124;2023-08-24T12:50:35;4.75;;;1.90;;
44214;SDS011;29884;47.450;19.124;2023-08-24T12:53:02;3.88;;;1.38;;
44214;SDS011;29884;47.450;19.124;2023-08-24T12:55:31;6.57;;;2.08;;
44214;SDS011;29884;47.450;19.124;2023-08-24T12:57:57;3.47;;;1.60;;
44214;SDS011;29884;47.450;19.124;2023-08-24T13:00:23;5.88;;;1.73;;
44214;SDS011;29884;47.450;19.124;2023-08-24T13:02:49;4.63;;;1.73;;
44214;SDS011;29884;47.450;19.124;2023-08-24T13:05:15;2.97;;;1.35;;
44214;SDS011;29884;47.450;19.124;2023-08-24T13:07:41;3.17;;;1.58;;
44214;SDS011;29884;47.450;19.124;2023-08-24T13:10:07;4.10;;;1.60;;
44214;SDS011;29884;47.450;19.124;2023-08-24T13:12:34;5.15;;;2.08;;
44214;SDS011;29884;47.450;19.124;2023-08-24T13:15:00;3.17;;;1.42;;
44214;SDS011;29884;47.450;19.124;2023-08-24T13:17:27;4.15;;;1.48;;
44214;SDS011;29884;47.450;19.124;2023-08-24T13:19:55;3.92;;;1.50;;
44214;SDS011;29884;47.450;19.124;2023-08-24T13:22:21;5.20;;;1.67;;
44214;SDS011;29884;47.450;19.124;2023-08-24T13:24:46;4.45;;;1.65;;
44214;SDS011;29884;47.450;19.124;2023-08-24T13:27:12;5.80;;;1.45;;
44214;SDS011;29884;47.450;19.124;2023-08-24T13:29:38;4.43;;;1.23;;
44214;SDS011;29884;47.450;19.124;2023-08-24T13:32:07;3.13;;;1.30;;
44214;SDS011;29884;47.450;19.124;2023-08-24T13:34:33;4.53;;;1.58;;
44214;SDS011;29884;47.450;19.124;2023-08-24T13:36:59;6.65;;;1.83;;
44214;SDS011;29884;47.450;19.124;2023-08-24T13:39:25;5.57;;;1.77;;
44214;SDS011;29884;47.450;19.124;2023-08-24T13:41:57;6.72;;;1.67;;
44214;SDS011;29884;47.450;19.124;2023-08-24T13:44:24;6.47;;;1.92;;
44214;SDS011;29884;47.450;19.124;2023-08-24T13:46:50;10.55;;;1.75;;
44214;SDS011;29884;47.450;19.124;2023-08-24T13:49:19;12.75;;;2.10;;
44214;SDS011;29884;47.450;19.124;2023-08-24T13:51:46;20.88;;;2.50;;
44214;SDS011;29884;47.450;19.124;2023-08-24T13:54:15;25.42;;;3.33;;
44214;SDS011;29884;47.450;19.124;2023-08-24T13:56:43;26.95;;;2.75;;
44214;SDS011;29884;47.450;19.124;2023-08-24T13:59:09;13.20;;;1.95;;
44214;SDS011;29884;47.450;19.124;2023-08-24T14:01:35;12.27;;;1.80;;
44214;SDS011;29884;47.450;19.124;2023-08-24T14:04:01;46.30;;;5.45;;
44214;SDS011;29884;47.450;19.124;2023-08-24T14:06:28;18.98;;;1.98;;
44214;SDS011;29884;47.450;19.124;2023-08-24T14:08:54;22.95;;;2.35;;
44214;SDS011;29884;47.450;19.124;2023-08-24T14:11:21;17.58;;;1.95;;
44214;SDS011;29884;47.450;19.124;2023-08-24T14:13:47;18.15;;;2.10;;
44214;SDS011;29884;47.450;19.124;2023-08-24T14:16:12;17.05;;;2.35;;
44214;SDS011;29884;47.450;19.124;2023-08-24T14:18:38;34.15;;;3.10;;
44214;SDS011;29884;47.450;19.124;2023-08-24T14:21:04;33.28;;;3.42;;
44214;SDS011;29884;47.450;19.124;2023-08-24T14:23:30;16.73;;;1.90;;
44214;SDS011;29884;47.450;19.124;2023-08-24T14:25:56;16.83;;;1.90;;
44214;SDS011;29884;47.450;19.124;2023-08-24T14:28:22;17.50;;;2.08;;
44214;SDS011;29884;47.450;19.124;2023-08-24T14:30:51;13.48;;;1.85;;
44214;SDS011;29884;47.450;19.124;2023-08-24T14:33:17;22.17;;;2.53;;
44214;SDS011;29884;47.450;19.124;2023-08-24T14:35:52;18.30;;;1.95;;
44214;SDS011;29884;47.450;19.124;2023-08-24T14:38:19;21.25;;;2.45;;
44214;SDS011;29884;47.450;19.124;2023-08-24T14:40:45;21.98;;;2.38;;
44214;SDS011;29884;47.450;19.124;2023-08-24T14:43:10;17.33;;;1.85;;
44214;SDS011;29884;47.450;19.124;2023-08-24T14:45:36;33.30;;;3.47;;